sensor_id;sensor_type;location;lat;lon;timestamp;temperature;humidity
20288;DHT22;10303;51.960;8.372;2023-02-23T00:01:50;12.30;99.90
20288;DHT22;10303;51.960;8.372;2023-02-23T00:04:15;12.30;99.90
20288;DHT22;10303;51.960;8.372;2023-02-23T00:06:43;12.30;99.90
20288;DHT22;10303;51.960;8.372;2023-02-23T00:09:09;12.30;99.90
20288;DHT22;10303;51.960;8.372;2023-02-23T00:12:04;12.30;99.90
20288;DHT22;10303;51.960;8.372;2023-02-23T00:14:34;12.30;99.90
20288;DHT22;10303;51.960;8.372;2023-02-23T00:17:02;12.20;99.90
20288;DHT22;10303;51.960;8.372;2023-02-23T00:19:28;12.20;99.90
20288;DHT22;10303;51.960;8.372;2023-02-23T00:21:53;12.10;99.90
20288;DHT22;10303;51.960;8.372;2023-02-23T00:24:23;12.20;99.90
20288;DHT22;10303;51.960;8.372;2023-02-23T00:26:51;12.10;99.90
20288;DHT22;10303;51.960;8.372;2023-02-23T00:29:20;12.10;99.90
20288;DHT22;10303;51.960;8.372;2023-02-23T00:31:49;12.00;99.90
20288;DHT22;10303;51.960;8.372;2023-02-23T00:34:17;11.80;99.90
20288;DHT22;10303;51.960;8.372;2023-02-23T00:36:52;12.00;99.90
20288;DHT22;10303;51.960;8.372;2023-02-23T00:39:20;11.80;99.90
20288;DHT22;10303;51.960;8.372;2023-02-23T00:41:50;11.80;99.90
20288;DHT22;10303;51.960;8.372;2023-02-23T00:44:17;12.10;99.90
20288;DHT22;10303;51.960;8.372;2023-02-23T00:46:44;12.00;99.90
20288;DHT22;10303;51.960;8.372;2023-02-23T00:49:14;12.10;99.90
20288;DHT22;10303;51.960;8.372;2023-02-23T00:51:41;12.20;99.90
20288;DHT22;10303;51.960;8.372;2023-02-23T00:54:07;12.20;99.90
20288;DHT22;10303;51.960;8.372;2023-02-23T00:56:37;12.20;99.90
20288;DHT22;10303;51.960;8.372;2023-02-23T00:59:03;12.30;99.90
20288;DHT22;10303;51.960;8.372;2023-02-23T01:01:29;12.40;99.90
20288;DHT22;10303;51.960;8.372;2023-02-23T01:03:55;12.40;99.90
20288;DHT22;10303;51.960;8.372;2023-02-23T01:06:22;12.50;99.90
20288;DHT22;10303;51.960;8.372;2023-02-23T01:08:50;12.50;99.90
20288;DHT22;10303;51.960;8.372;2023-02-23T01:11:23;12.70;99.90
20288;DHT22;10303;51.960;8.372;2023-02-23T01:13:57;12.50;99.90
20288;DHT22;10303;51.960;8.372;2023-02-23T01:16:27;12.70;99.90
20288;DHT22;10303;51.960;8.372;2023-02-23T01:18:56;12.60;99.90
20288;DHT22;10303;51.960;8.372;2023-02-23T01:21:27;12.60;99.90
20288;DHT22;10303;51.960;8.372;2023-02-23T01:23:56;12.60;99.90
20288;DHT22;10303;51.960;8.372;2023-02-23T01:26:24;12.60;99.90
20288;DHT22;10303;51.960;8.372;2023-02-23T01:28:57;12.70;99.90
20288;DHT22;10303;51.960;8.372;2023-02-23T01:31:25;12.70;99.90
20288;DHT22;10303;51.960;8.372;2023-02-23T01:33:57;12.60;99.90
20288;DHT22;10303;51.960;8.372;2023-02-23T01:36:26;12.60;99.90
20288;DHT22;10303;51.960;8.372;2023-02-23T01:38:56;12.60;99.90
20288;DHT22;10303;51.960;8.372;2023-02-23T01:41:26;12.70;99.90
20288;DHT22;10303;51.960;8.372;2023-02-23T01:43:58;12.60;99.90
20288;DHT22;10303;51.960;8.372;2023-02-23T01:46:30;12.70;99.90
20288;DHT22;10303;51.960;8.372;2023-02-23T01:49:02;12.70;99.90
20288;DHT22;10303;51.960;8.372;2023-02-23T01:51:38;12.60;99.90
20288;DHT22;10303;51.960;8.372;2023-02-23T01:54:17;12.60;99.90
20288;DHT22;10303;51.960;8.372;2023-02-23T01:56:50;12.60;99.90
20288;DHT22;10303;51.960;8.372;2023-02-23T01:59:36;12.60;99.90
20288;DHT22;10303;51.960;8.372;2023-02-23T02:02:04;12.60;99.90
20288;DHT22;10303;51.960;8.372;2023-02-23T02:04:31;12.70;99.90
20288;DHT22;10303;51.960;8.372;2023-02-23T02:07:13;12.90;99.90
20288;DHT22;10303;51.960;8.372;2023-02-23T02:09:48;12.70;99.90
20288;DHT22;10303;51.960;8.372;2023-02-23T02:12:39;12.70;99.90
20288;DHT22;10303;51.960;8.372;2023-02-23T02:15:07;12.70;99.90
20288;DHT22;10303;51.960;8.372;2023-02-23T02:18:12;12.70;99.90
20288;DHT22;10303;51.960;8.372;2023-02-23T02:36:51;12.80;99.90
20288;DHT22;10303;51.960;8.372;2023-02-23T02:48:53;12.90;99.90
20288;DHT22;10303;51.960;8.372;2023-02-23T02:52:10;12.90;99.90
20288;DHT22;10303;51.960;8.372;2023-02-23T02:54:48;12.90;99.90
20288;DHT22;10303;51.960;8.372;2023-02-23T02:57:24;12.90;99.90
20288;DHT22;10303;51.960;8.372;2023-02-23T02:59:52;12.90;99.90
20288;DHT22;10303;51.960;8.372;2023-02-23T03:02:38;12.90;99.90
20288;DHT22;10303;51.960;8.372;2023-02-23T03:05:52;12.90;99.90
20288;DHT22;10303;51.960;8.372;2023-02-23T03:08:47;12.90;99.90
20288;DHT22;10303;51.960;8.372;2023-02-23T03:11:46;12.90;99.90
20288;DHT22;10303;51.960;8.372;2023-02-23T03:21:14;13.00;99.90
20288;DHT22;10303;51.960;8.372;2023-02-23T03:30:24;13.00;99.90
20288;DHT22;10303;51.960;8.372;2023-02-23T03:33:18;13.00;99.90
20288;DHT22;10303;51.960;8.372;2023-02-23T03:36:20;13.00;99.90
20288;DHT22;10303;51.960;8.372;2023-02-23T03:39:29;13.00;99.90
20288;DHT22;10303;51.960;8.372;2023-02-23T03:42:26;13.00;99.90
20288;DHT22;10303;51.960;8.372;2023-02-23T03:45:19;13.00;99.90
20288;DHT22;10303;51.960;8.372;2023-02-23T03:48:09;13.00;99.90
20288;DHT22;10303;51.960;8.372;2023-02-23T03:50:59;13.00;99.90
20288;DHT22;10303;51.960;8.372;2023-02-23T03:53:59;13.00;99.90
20288;DHT22;10303;51.960;8.372;2023-02-23T03:56:52;13.00;99.90
20288;DHT22;10303;51.960;8.372;2023-02-23T03:59:43;13.10;99.90
20288;DHT22;10303;51.960;8.372;2023-02-23T04:02:40;13.00;99.90
20288;DHT22;10303;51.960;8.372;2023-02-23T04:05:28;13.30;99.90
20288;DHT22;10303;51.960;8.372;2023-02-23T04:08:17;13.10;99.90
20288;DHT22;10303;51.960;8.372;2023-02-23T04:11:22;13.10;99.90
20288;DHT22;10303;51.960;8.372;2023-02-23T04:14:18;13.10;99.90
20288;DHT22;10303;51.960;8.372;2023-02-23T04:16:50;13.10;99.90
20288;DHT22;10303;51.960;8.372;2023-02-23T04:19:17;13.20;99.90
20288;DHT22;10303;51.960;8.372;2023-02-23T04:21:43;13.10;99.90
20288;DHT22;10303;51.960;8.372;2023-02-23T04:24:09;13.30;99.90
20288;DHT22;10303;51.960;8.372;2023-02-23T04:26:35;13.10;99.90
20288;DHT22;10303;51.960;8.372;2023-02-23T04:29:01;13.20;99.90
20288;DHT22;10303;51.960;8.372;2023-02-23T04:31:27;13.30;99.90
20288;DHT22;10303;51.960;8.372;2023-02-23T04:33:53;13.10;99.90
20288;DHT22;10303;51.960;8.372;2023-02-23T04:36:19;13.20;99.90
20288;DHT22;10303;51.960;8.372;2023-02-23T04:38:44;13.20;99.90
20288;DHT22;10303;51.960;8.372;2023-02-23T04:41:10;13.20;99.90
20288;DHT22;10303;51.960;8.372;2023-02-23T04:43:36;13.20;99.90
20288;DHT22;10303;51.960;8.372;2023-02-23T04:46:02;13.20;99.90
20288;DHT22;10303;51.960;8.372;2023-02-23T04:48:28;13.20;99.90
20288;DHT22;10303;51.960;8.372;2023-02-23T04:50:54;13.30;99.90
20288;DHT22;10303;51.960;8.372;2023-02-23T04:53:20;13.20;99.90
20288;DHT22;10303;51.960;8.372;2023-02-23T04:55:46;13.20;99.90
20288;DHT22;10303;51.960;8.372;2023-02-23T04:58:12;13.20;99.90
20288;DHT22;10303;51.960;8.372;2023-02-23T05:00:39;13.20;99.90
20288;DHT22;10303;51.960;8.372;2023-02-23T05:03:05;13.20;99.90
20288;DHT22;10303;51.960;8.372;2023-02-23T05:05:31;13.20;99.90
20288;DHT22;10303;51.960;8.372;2023-02-23T05:07:57;13.20;99.90
20288;DHT22;10303;51.960;8.372;2023-02-23T05:10:23;13.20;99.90
20288;DHT22;10303;51.960;8.372;2023-02-23T05:12:49;13.20;99.90
20288;DHT22;10303;51.960;8.372;2023-02-23T05:15:15;13.20;99.90
20288;DHT22;10303;51.960;8.372;2023-02-23T05:17:41;13.20;99.90
20288;DHT22;10303;51.960;8.372;2023-02-23T05:20:09;13.20;99.90
20288;DHT22;10303;51.960;8.372;2023-02-23T05:22:36;13.20;99.90
20288;DHT22;10303;51.960;8.372;2023-02-23T05:25:03;13.20;99.90
20288;DHT22;10303;51.960;8.372;2023-02-23T05:27:30;13.20;99.90
20288;DHT22;10303;51.960;8.372;2023-02-23T05:29:57;13.20;99.90
20288;DHT22;10303;51.960;8.372;2023-02-23T05:32:23;13.20;99.90
20288;DHT22;10303;51.960;8.372;2023-02-23T05:34:49;13.20;99.90
20288;DHT22;10303;51.960;8.372;2023-02-23T05:37:15;13.20;99.90
20288;DHT22;10303;51.960;8.372;2023-02-23T05:39:41;13.10;99.90
20288;DHT22;10303;51.960;8.372;2023-02-23T05:42:06;13.20;99.90
20288;DHT22;10303;51.960;8.372;2023-02-23T05:44:32;13.20;99.90
20288;DHT22;10303;51.960;8.372;2023-02-23T05:46:58;13.10;99.90
20288;DHT22;10303;51.960;8.372;2023-02-23T05:49:24;13.20;99.90
20288;DHT22;10303;51.960;8.372;2023-02-23T05:51:50;13.30;99.90
20288;DHT22;10303;51.960;8.372;2023-02-23T05:54:16;13.20;99.90
20288;DHT22;10303;51.960;8.372;2023-02-23T05:56:42;13.20;99.90
20288;DHT22;10303;51.960;8.372;2023-02-23T05:59:08;13.10;99.90
20288;DHT22;10303;51.960;8.372;2023-02-23T06:01:34;13.20;99.90
20288;DHT22;10303;51.960;8.372;2023-02-23T06:04:00;13.30;99.90
20288;DHT22;10303;51.960;8.372;2023-02-23T06:06:26;13.20;99.90
20288;DHT22;10303;51.960;8.372;2023-02-23T06:08:53;13.30;99.90
20288;DHT22;10303;51.960;8.372;2023-02-23T06:11:19;13.20;99.90
20288;DHT22;10303;51.960;8.372;2023-02-23T06:13:45;13.20;99.90
20288;DHT22;10303;51.960;8.372;2023-02-23T06:16:11;13.20;99.90
20288;DHT22;10303;51.960;8.372;2023-02-23T06:18:37;13.10;99.90
20288;DHT22;10303;51.960;8.372;2023-02-23T06:21:03;13.20;99.90
20288;DHT22;10303;51.960;8.372;2023-02-23T06:23:30;13.10;99.90
20288;DHT22;10303;51.960;8.372;2023-02-23T06:26:00;13.10;99.90
20288;DHT22;10303;51.960;8.372;2023-02-23T06:28:27;13.30;99.90
20288;DHT22;10303;51.960;8.372;2023-02-23T06:30:54;13.10;99.90
20288;DHT22;10303;51.960;8.372;2023-02-23T06:33:21;13.10;99.90
20288;DHT22;10303;51.960;8.372;2023-02-23T06:35:48;13.10;99.90
20288;DHT22;10303;51.960;8.372;2023-02-23T06:38:14;13.10;99.90
20288;DHT22;10303;51.960;8.372;2023-02-23T06:40:40;13.10;99.90
20288;DHT22;10303;51.960;8.372;2023-02-23T06:43:06;13.10;99.90
20288;DHT22;10303;51.960;8.372;2023-02-23T06:45:32;13.10;99.90
20288;DHT22;10303;51.960;8.372;2023-02-23T06:47:58;13.10;99.90
20288;DHT22;10303;51.960;8.372;2023-02-23T06:50:26;13.10;99.90
20288;DHT22;10303;51.960;8.372;2023-02-23T06:52:52;13.10;99.90
20288;DHT22;10303;51.960;8.372;2023-02-23T06:55:18;13.10;99.90
20288;DHT22;10303;51.960;8.372;2023-02-23T06:57:44;13.10;99.90
20288;DHT22;10303;51.960;8.372;2023-02-23T07:00:13;13.20;99.90
20288;DHT22;10303;51.960;8.372;2023-02-23T07:02:41;13.10;99.90
20288;DHT22;10303;51.960;8.372;2023-02-23T07:05:09;13.10;99.90
20288;DHT22;10303;51.960;8.372;2023-02-23T07:07:36;13.10;99.90
20288;DHT22;10303;51.960;8.372;2023-02-23T07:10:03;13.20;99.90
20288;DHT22;10303;51.960;8.372;2023-02-23T07:12:30;13.10;99.90
20288;DHT22;10303;51.960;8.372;2023-02-23T07:14:56;13.20;99.90
20288;DHT22;10303;51.960;8.372;2023-02-23T07:17:22;13.10;99.90
20288;DHT22;10303;51.960;8.372;2023-02-23T07:19:48;13.10;99.90
20288;DHT22;10303;51.960;8.372;2023-02-23T07:22:14;13.10;99.90
20288;DHT22;10303;51.960;8.372;2023-02-23T07:24:40;13.10;99.90
20288;DHT22;10303;51.960;8.372;2023-02-23T07:27:06;13.10;99.90
20288;DHT22;10303;51.960;8.372;2023-02-23T07:29:31;13.10;99.90
20288;DHT22;10303;51.960;8.372;2023-02-23T07:31:57;13.10;99.90
20288;DHT22;10303;51.960;8.372;2023-02-23T07:34:24;13.10;99.90
20288;DHT22;10303;51.960;8.372;2023-02-23T07:36:51;13.10;99.90
20288;DHT22;10303;51.960;8.372;2023-02-23T07:39:17;13.10;99.90
20288;DHT22;10303;51.960;8.372;2023-02-23T07:41:43;13.10;99.90
20288;DHT22;10303;51.960;8.372;2023-02-23T07:44:18;13.10;99.90
20288;DHT22;10303;51.960;8.372;2023-02-23T07:46:44;13.10;99.90
20288;DHT22;10303;51.960;8.372;2023-02-23T07:49:11;13.10;99.90
20288;DHT22;10303;51.960;8.372;2023-02-23T07:51:39;13.10;99.90
20288;DHT22;10303;51.960;8.372;2023-02-23T07:54:05;13.10;99.90
20288;DHT22;10303;51.960;8.372;2023-02-23T07:56:32;13.10;99.90
20288;DHT22;10303;51.960;8.372;2023-02-23T07:58:58;13.10;99.90
20288;DHT22;10303;51.960;8.372;2023-02-23T08:01:24;13.10;99.90
20288;DHT22;10303;51.960;8.372;2023-02-23T08:03:49;13.10;99.90
20288;DHT22;10303;51.960;8.372;2023-02-23T08:06:17;13.10;99.90
20288;DHT22;10303;51.960;8.372;2023-02-23T08:08:44;13.10;99.90
20288;DHT22;10303;51.960;8.372;2023-02-23T08:11:10;13.10;99.90
20288;DHT22;10303;51.960;8.372;2023-02-23T08:13:37;13.10;99.90
20288;DHT22;10303;51.960;8.372;2023-02-23T08:16:03;13.10;99.90
20288;DHT22;10303;51.960;8.372;2023-02-23T08:18:29;13.10;99.90
20288;DHT22;10303;51.960;8.372;2023-02-23T08:21:03;13.10;99.90
20288;DHT22;10303;51.960;8.372;2023-02-23T08:23:30;14.90;99.90
20288;DHT22;10303;51.960;8.372;2023-02-23T08:25:58;13.10;99.90
20288;DHT22;10303;51.960;8.372;2023-02-23T08:28:25;13.10;99.90
20288;DHT22;10303;51.960;8.372;2023-02-23T08:30:52;13.10;99.90
20288;DHT22;10303;51.960;8.372;2023-02-23T08:33:19;13.10;99.90
20288;DHT22;10303;51.960;8.372;2023-02-23T08:35:45;13.10;99.90
20288;DHT22;10303;51.960;8.372;2023-02-23T08:38:11;13.10;99.90
20288;DHT22;10303;51.960;8.372;2023-02-23T08:40:37;13.10;99.90
20288;DHT22;10303;51.960;8.372;2023-02-23T08:43:03;13.10;99.90
20288;DHT22;10303;51.960;8.372;2023-02-23T08:45:29;13.10;99.90
20288;DHT22;10303;51.960;8.372;2023-02-23T08:47:56;13.10;99.90
20288;DHT22;10303;51.960;8.372;2023-02-23T08:50:22;13.00;99.90
20288;DHT22;10303;51.960;8.372;2023-02-23T08:52:48;13.00;99.90
20288;DHT22;10303;51.960;8.372;2023-02-23T08:55:14;13.00;99.90
20288;DHT22;10303;51.960;8.372;2023-02-23T08:57:41;13.00;99.90
20288;DHT22;10303;51.960;8.372;2023-02-23T09:00:07;13.00;99.90
20288;DHT22;10303;51.960;8.372;2023-02-23T09:02:42;13.00;99.90
20288;DHT22;10303;51.960;8.372;2023-02-23T09:05:09;13.00;99.90
20288;DHT22;10303;51.960;8.372;2023-02-23T09:07:37;13.00;99.90
20288;DHT22;10303;51.960;8.372;2023-02-23T09:10:04;12.90;99.90
20288;DHT22;10303;51.960;8.372;2023-02-23T09:12:31;12.90;99.90
20288;DHT22;10303;51.960;8.372;2023-02-23T09:14:56;12.80;99.90
20288;DHT22;10303;51.960;8.372;2023-02-23T09:17:22;13.00;99.90
20288;DHT22;10303;51.960;8.372;2023-02-23T09:19:49;12.90;99.90
20288;DHT22;10303;51.960;8.372;2023-02-23T09:22:15;12.90;99.90
20288;DHT22;10303;51.960;8.372;2023-02-23T09:24:43;12.80;99.90
20288;DHT22;10303;51.960;8.372;2023-02-23T09:27:09;12.90;99.90
20288;DHT22;10303;51.960;8.372;2023-02-23T09:29:38;13.00;99.90
20288;DHT22;10303;51.960;8.372;2023-02-23T09:32:08;12.80;99.90
20288;DHT22;10303;51.960;8.372;2023-02-23T09:34:35;12.80;99.90
20288;DHT22;10303;51.960;8.372;2023-02-23T09:37:02;12.90;99.90
20288;DHT22;10303;51.960;8.372;2023-02-23T09:39:28;12.70;99.90
20288;DHT22;10303;51.960;8.372;2023-02-23T09:42:07;12.70;99.90
20288;DHT22;10303;51.960;8.372;2023-02-23T09:45:34;12.70;99.90
20288;DHT22;10303;51.960;8.372;2023-02-23T09:50:37;12.50;99.90
20288;DHT22;10303;51.960;8.372;2023-02-23T09:53:32;12.50;99.90
20288;DHT22;10303;51.960;8.372;2023-02-23T09:59:16;12.60;99.90
20288;DHT22;10303;51.960;8.372;2023-02-23T10:04:56;12.60;99.90
20288;DHT22;10303;51.960;8.372;2023-02-23T10:07:42;12.50;99.90
20288;DHT22;10303;51.960;8.372;2023-02-23T10:10:48;12.50;99.90
20288;DHT22;10303;51.960;8.372;2023-02-23T10:13:34;12.50;99.90
20288;DHT22;10303;51.960;8.372;2023-02-23T10:16:23;12.50;99.90
20288;DHT22;10303;51.960;8.372;2023-02-23T10:22:10;12.60;99.90
20288;DHT22;10303;51.960;8.372;2023-02-23T10:24:42;12.60;99.90
20288;DHT22;10303;51.960;8.372;2023-02-23T10:27:15;12.70;99.90
20288;DHT22;10303;51.960;8.372;2023-02-23T10:29:57;12.60;99.90
20288;DHT22;10303;51.960;8.372;2023-02-23T10:34:58;12.80;99.90
20288;DHT22;10303;51.960;8.372;2023-02-23T10:37:24;12.80;99.90
20288;DHT22;10303;51.960;8.372;2023-02-23T10:39:51;12.60;99.90
20288;DHT22;10303;51.960;8.372;2023-02-23T10:42:23;12.40;99.90
20288;DHT22;10303;51.960;8.372;2023-02-23T10:44:55;12.40;99.90
20288;DHT22;10303;51.960;8.372;2023-02-23T10:47:25;12.50;99.90
20288;DHT22;10303;51.960;8.372;2023-02-23T10:49:55;12.60;99.90
20288;DHT22;10303;51.960;8.372;2023-02-23T10:55:21;12.60;99.90
20288;DHT22;10303;51.960;8.372;2023-02-23T10:58:15;12.70;99.90
20288;DHT22;10303;51.960;8.372;2023-02-23T11:01:01;12.70;99.90
20288;DHT22;10303;51.960;8.372;2023-02-23T11:03:32;12.70;99.90
20288;DHT22;10303;51.960;8.372;2023-02-23T11:06:03;12.90;99.90
20288;DHT22;10303;51.960;8.372;2023-02-23T11:08:36;12.70;99.90
20288;DHT22;10303;51.960;8.372;2023-02-23T11:11:48;12.80;99.90
20288;DHT22;10303;51.960;8.372;2023-02-23T11:13:56;12.80;99.90
20288;DHT22;10303;51.960;8.372;2023-02-23T11:16:29;12.80;99.90
20288;DHT22;10303;51.960;8.372;2023-02-23T11:19:04;12.70;99.90
20288;DHT22;10303;51.960;8.372;2023-02-23T11:21:49;12.70;99.90
20288;DHT22;10303;51.960;8.372;2023-02-23T11:24:28;12.70;99.90
20288;DHT22;10303;51.960;8.372;2023-02-23T11:27:00;12.90;99.90
20288;DHT22;10303;51.960;8.372;2023-02-23T11:29:53;12.90;99.90
20288;DHT22;10303;51.960;8.372;2023-02-23T11:32:27;12.70;99.90
20288;DHT22;10303;51.960;8.372;2023-02-23T11:37:49;12.70;99.90
20288;DHT22;10303;51.960;8.372;2023-02-23T11:40:27;12.50;99.90
20288;DHT22;10303;51.960;8.372;2023-02-23T11:43:06;12.60;99.90
20288;DHT22;10303;51.960;8.372;2023-02-23T11:48:26;12.70;99.90
20288;DHT22;10303;51.960;8.372;2023-02-23T11:50:57;12.70;99.90
20288;DHT22;10303;51.960;8.372;2023-02-23T11:53:36;12.70;99.90
20288;DHT22;10303;51.960;8.372;2023-02-23T11:56:07;12.60;99.90
20288;DHT22;10303;51.960;8.372;2023-02-23T11:59:00;12.50;99.90
20288;DHT22;10303;51.960;8.372;2023-02-23T12:01:43;12.50;99.90
20288;DHT22;10303;51.960;8.372;2023-02-23T12:04:35;12.30;99.90
20288;DHT22;10303;51.960;8.372;2023-02-23T12:10:10;12.40;99.90
20288;DHT22;10303;51.960;8.372;2023-02-23T12:19:23;12.40;99.90
20288;DHT22;10303;51.960;8.372;2023-02-23T12:30:47;12.20;99.90
20288;DHT22;10303;51.960;8.372;2023-02-23T12:39:05;12.00;99.90
20288;DHT22;10303;51.960;8.372;2023-02-23T12:41:42;12.10;99.90
20288;DHT22;10303;51.960;8.372;2023-02-23T12:44:18;12.20;99.90
20288;DHT22;10303;51.960;8.372;2023-02-23T12:50:09;12.10;99.90
20288;DHT22;10303;51.960;8.372;2023-02-23T12:52:44;12.20;99.90
20288;DHT22;10303;51.960;8.372;2023-02-23T13:01:38;12.20;99.90
20288;DHT22;10303;51.960;8.372;2023-02-23T13:07:20;11.80;99.90
20288;DHT22;10303;51.960;8.372;2023-02-23T13:12:47;11.80;99.90
20288;DHT22;10303;51.960;8.372;2023-02-23T13:15:35;11.90;99.90
20288;DHT22;10303;51.960;8.372;2023-02-23T13:18:28;11.90;99.90
20288;DHT22;10303;51.960;8.372;2023-02-23T13:23:41;11.70;99.90
20288;DHT22;10303;51.960;8.372;2023-02-23T13:26:23;11.70;99.90
20288;DHT22;10303;51.960;8.372;2023-02-23T13:29:11;11.70;99.90
20288;DHT22;10303;51.960;8.372;2023-02-23T13:31:51;11.80;99.90
20288;DHT22;10303;51.960;8.372;2023-02-23T13:34:32;12.10;99.90
20288;DHT22;10303;51.960;8.372;2023-02-23T13:37:04;12.10;99.90
20288;DHT22;10303;51.960;8.372;2023-02-23T13:39:45;12.10;99.90
20288;DHT22;10303;51.960;8.372;2023-02-23T13:51:01;12.10;99.90
20288;DHT22;10303;51.960;8.372;2023-02-23T13:53:35;12.20;99.90
20288;DHT22;10303;51.960;8.372;2023-02-23T13:56:19;12.20;99.90
20288;DHT22;10303;51.960;8.372;2023-02-23T13:58:53;12.30;99.90
20288;DHT22;10303;51.960;8.372;2023-02-23T14:01:32;11.90;99.90
20288;DHT22;10303;51.960;8.372;2023-02-23T14:04:04;11.80;99.90
20288;DHT22;10303;51.960;8.372;2023-02-23T14:06:38;11.90;99.90
20288;DHT22;10303;51.960;8.372;2023-02-23T14:09:20;12.00;99.90
20288;DHT22;10303;51.960;8.372;2023-02-23T14:11:50;11.70;99.90
20288;DHT22;10303;51.960;8.372;2023-02-23T14:19:42;11.70;99.90
20288;DHT22;10303;51.960;8.372;2023-02-23T14:22:21;11.80;99.90
20288;DHT22;10303;51.960;8.372;2023-02-23T14:28:03;11.80;99.90
20288;DHT22;10303;51.960;8.372;2023-02-23T14:39:13;11.70;99.90
20288;DHT22;10303;51.960;8.372;2023-02-23T14:41:57;11.50;99.90
20288;DHT22;10303;51.960;8.372;2023-02-23T14:44:30;11.30;99.90
20288;DHT22;10303;51.960;8.372;2023-02-23T14:47:07;11.30;99.90
20288;DHT22;10303;51.960;8.372;2023-02-23T14:49:42;11.30;99.90
20288;DHT22;10303;51.960;8.372;2023-02-23T14:54:47;10.80;99.90
20288;DHT22;10303;51.960;8.372;2023-02-23T14:57:24;10.80;99.90
20288;DHT22;10303;51.960;8.372;2023-02-23T14:59:58;10.90;99.90
20288;DHT22;10303;51.960;8.372;2023-02-23T15:02:28;10.70;99.90
20288;DHT22;10303;51.960;8.372;2023-02-23T15:04:55;10.80;99.90
20288;DHT22;10303;51.960;8.372;2023-02-23T15:07:35;11.00;99.90
20288;DHT22;10303;51.960;8.372;2023-02-23T15:10:15;11.00;99.90
20288;DHT22;10303;51.960;8.372;2023-02-23T15:12:47;10.60;99.90
20288;DHT22;10303;51.960;8.372;2023-02-23T15:15:18;10.50;99.90
20288;DHT22;10303;51.960;8.372;2023-02-23T15:17:49;10.50;99.90
20288;DHT22;10303;51.960;8.372;2023-02-23T15:20:21;10.60;99.90
20288;DHT22;10303;51.960;8.372;2023-02-23T15:22:57;10.50;99.90
20288;DHT22;10303;51.960;8.372;2023-02-23T15:25:36;10.70;99.90
20288;DHT22;10303;51.960;8.372;2023-02-23T15:28:23;10.50;99.90
20288;DHT22;10303;51.960;8.372;2023-02-23T15:31:01;10.70;99.90
20288;DHT22;10303;51.960;8.372;2023-02-23T15:33:29;10.80;99.90
20288;DHT22;10303;51.960;8.372;2023-02-23T15:36:34;10.90;99.90
20288;DHT22;10303;51.960;8.372;2023-02-23T15:38:56;11.00;99.90
20288;DHT22;10303;51.960;8.372;2023-02-23T15:41:30;11.10;99.90
20288;DHT22;10303;51.960;8.372;2023-02-23T15:46:51;10.90;99.90
20288;DHT22;10303;51.960;8.372;2023-02-23T15:49:26;11.10;99.90
20288;DHT22;10303;51.960;8.372;2023-02-23T15:52:02;11.10;99.90
20288;DHT22;10303;51.960;8.372;2023-02-23T15:57:29;10.90;99.90
20288;DHT22;10303;51.960;8.372;2023-02-23T15:59:59;11.00;99.90
20288;DHT22;10303;51.960;8.372;2023-02-23T16:02:28;11.10;99.90
20288;DHT22;10303;51.960;8.372;2023-02-23T16:04:55;11.10;99.90
20288;DHT22;10303;51.960;8.372;2023-02-23T16:07:39;11.20;99.90
20288;DHT22;10303;51.960;8.372;2023-02-23T16:10:22;11.30;99.90
20288;DHT22;10303;51.960;8.372;2023-02-23T16:12:52;11.30;99.90
20288;DHT22;10303;51.960;8.372;2023-02-23T16:18:02;11.30;99.90
20288;DHT22;10303;51.960;8.372;2023-02-23T16:20:37;11.30;99.90
20288;DHT22;10303;51.960;8.372;2023-02-23T16:23:33;11.40;99.90
20288;DHT22;10303;51.960;8.372;2023-02-23T16:26:09;11.40;99.90
20288;DHT22;10303;51.960;8.372;2023-02-23T16:28:43;11.40;99.90
20288;DHT22;10303;51.960;8.372;2023-02-23T16:31:12;11.50;99.90
20288;DHT22;10303;51.960;8.372;2023-02-23T16:33:57;11.40;99.90
20288;DHT22;10303;51.960;8.372;2023-02-23T16:36:36;11.40;99.90
20288;DHT22;10303;51.960;8.372;2023-02-23T16:39:10;11.40;99.90
20288;DHT22;10303;51.960;8.372;2023-02-23T16:41:37;11.30;99.90
20288;DHT22;10303;51.960;8.372;2023-02-23T16:44:06;11.30;99.90
20288;DHT22;10303;51.960;8.372;2023-02-23T16:46:55;11.30;99.90
20288;DHT22;10303;51.960;8.372;2023-02-23T16:49:26;11.30;99.90
20288;DHT22;10303;51.960;8.372;2023-02-23T16:51:58;11.20;99.90
20288;DHT22;10303;51.960;8.372;2023-02-23T16:54:25;11.40;99.90
20288;DHT22;10303;51.960;8.372;2023-02-23T16:56:54;11.40;99.90
20288;DHT22;10303;51.960;8.372;2023-02-23T16:59:21;11.30;99.90
20288;DHT22;10303;51.960;8.372;2023-02-23T17:01:48;11.20;99.90
20288;DHT22;10303;51.960;8.372;2023-02-23T17:04:17;11.30;99.90
20288;DHT22;10303;51.960;8.372;2023-02-23T17:06:45;11.20;99.90
20288;DHT22;10303;51.960;8.372;2023-02-23T17:09:22;11.20;99.90
20288;DHT22;10303;51.960;8.372;2023-02-23T17:11:50;11.30;99.90
20288;DHT22;10303;51.960;8.372;2023-02-23T17:14:23;11.20;99.90
20288;DHT22;10303;51.960;8.372;2023-02-23T17:16:52;11.30;99.90
20288;DHT22;10303;51.960;8.372;2023-02-23T17:19:18;11.20;99.90
20288;DHT22;10303;51.960;8.372;2023-02-23T17:21:45;11.00;99.90
20288;DHT22;10303;51.960;8.372;2023-02-23T17:24:11;11.00;99.90
20288;DHT22;10303;51.960;8.372;2023-02-23T17:26:37;11.00;99.90
20288;DHT22;10303;51.960;8.372;2023-02-23T17:29:04;11.00;99.90
20288;DHT22;10303;51.960;8.372;2023-02-23T17:31:30;11.10;99.90
20288;DHT22;10303;51.960;8.372;2023-02-23T17:33:56;11.00;99.90
20288;DHT22;10303;51.960;8.372;2023-02-23T17:36:22;11.10;99.90
20288;DHT22;10303;51.960;8.372;2023-02-23T17:38:48;11.00;99.90
20288;DHT22;10303;51.960;8.372;2023-02-23T17:41:16;11.10;99.90
20288;DHT22;10303;51.960;8.372;2023-02-23T17:43:44;10.80;99.90
20288;DHT22;10303;51.960;8.372;2023-02-23T17:46:11;10.90;99.90
20288;DHT22;10303;51.960;8.372;2023-02-23T17:48:37;11.00;99.90
20288;DHT22;10303;51.960;8.372;2023-02-23T17:51:12;11.00;99.90
20288;DHT22;10303;51.960;8.372;2023-02-23T17:53:41;10.90;99.90
20288;DHT22;10303;51.960;8.372;2023-02-23T17:56:09;10.90;99.90
20288;DHT22;10303;51.960;8.372;2023-02-23T17:58:35;10.80;99.90
20288;DHT22;10303;51.960;8.372;2023-02-23T18:01:04;10.90;99.90
20288;DHT22;10303;51.960;8.372;2023-02-23T18:03:32;10.70;99.90
20288;DHT22;10303;51.960;8.372;2023-02-23T18:06:00;10.70;99.90
20288;DHT22;10303;51.960;8.372;2023-02-23T18:08:31;10.90;99.90
20288;DHT22;10303;51.960;8.372;2023-02-23T18:10:57;10.80;99.90
20288;DHT22;10303;51.960;8.372;2023-02-23T18:13:25;10.80;99.90
20288;DHT22;10303;51.960;8.372;2023-02-23T18:15:58;10.80;99.90
20288;DHT22;10303;51.960;8.372;2023-02-23T18:18:27;10.70;99.90
20288;DHT22;10303;51.960;8.372;2023-02-23T18:20:56;10.70;99.90
20288;DHT22;10303;51.960;8.372;2023-02-23T18:23:25;10.30;99.90
20288;DHT22;10303;51.960;8.372;2023-02-23T18:26:08;10.40;99.90